Time;durP1;ratioP1;P1;durP2;ratioP2;P2;SDS_P1;SDS_P2;PMS_P1;PMS_P2;Temp;Humidity;BMP_temperature;BMP_pressure;BME280_temperature;BME280_humidity;BME280_pressure;Samples;Min_cycle;Max_cycle;Signal;HPM_P1;HPM_P2
2021/01/02 00:02:04;81068.00;0.27;140.88;0.00;0.00;0.62;;;;;11.10;1.00;;;;;;2268462;61;1444;-89
2021/01/02 00:05:12;170557.00;0.57;295.23;79026.00;0.26;137.35;;;;;11.10;1.00;;;;;;2268473;61;1076;-89
2021/01/02 00:08:06;352717.00;1.18;608.53;81934.00;0.27;142.38;;;;;10.90;1.00;;;;;;2269453;61;1630;-89
2021/01/02 00:10:47;341372.00;1.14;589.03;0.00;0.00;0.62;;;;;11.20;1.00;;;;;;2276342;61;2002;-89
2021/01/02 00:13:25;5682.00;0.02;10.47;0.00;0.00;0.62;;;;;11.30;1.00;;;;;;2276923;61;1635;-89
2021/01/02 00:16:16;0.00;0.00;0.62;0.00;0.00;0.62;;;;;11.30;1.00;;;;;;2276979;61;977;-90
2021/01/02 00:18:55;0.00;0.00;0.62;0.00;0.00;0.62;;;;;11.20;1.00;;;;;;2276939;61;1027;-88
2021/01/02 00:21:26;408759.00;1.36;704.86;67825.00;0.23;118.00;;;;;11.10;1.00;;;;;;2276890;61;977;-88
2021/01/02 00:24:26;194738.00;0.65;336.87;0.00;0.00;0.62;;;;;11.10;1.00;;;;;;2276840;61;1630;-88
2021/01/02 00:27:06;116997.00;0.39;202.90;0.00;0.00;0.62;;;;;11.10;1.00;;;;;;2276861;61;1735;-90
2021/01/02 00:30:07;17056.00;0.06;30.17;0.00;0.00;0.62;;;;;11.20;1.00;;;;;;2276838;61;2016;-90
2021/01/02 00:32:59;0.00;0.00;0.62;0.00;0.00;0.62;;;;;11.10;1.00;;;;;;2276792;61;1703;-88
2021/01/02 00:35:28;0.00;0.00;0.62;0.00;0.00;0.62;;;;;11.30;1.00;;;;;;2276813;61;1736;-90
2021/01/02 00:38:02;92062.00;0.31;159.87;0.00;0.00;0.62;;;;;11.10;1.00;;;;;;2276818;61;1758;-89
2021/01/02 00:40:29;74984.00;0.25;130.37;0.00;0.00;0.62;;;;;11.20;1.00;;;;;;2276823;61;1297;-90
2021/01/02 00:42:57;130888.00;0.44;226.86;0.00;0.00;0.62;;;;;11.30;1.00;;;;;;2276806;61;1739;-90
2021/01/02 00:45:26;4286.00;0.01;8.05;0.00;0.00;0.62;;;;;11.30;1.00;;;;;;2276799;61;1592;-89
2021/01/02 00:47:53;13505.00;0.05;24.02;0.00;0.00;0.62;;;;;11.50;1.00;;;;;;2276812;61;1706;-89
2021/01/02 00:50:21;159427.00;0.53;276.05;0.00;0.00;0.62;;;;;11.60;1.00;;;;;;2276755;61;2012;-88
2021/01/02 00:53:26;67733.00;0.23;117.84;0.00;0.00;0.62;;;;;11.70;1.00;;;;;;2276706;61;1582;-89
2021/01/02 00:56:15;53085.00;0.18;92.52;0.00;0.00;0.62;;;;;11.70;1.00;;;;;;2276802;61;998;-88
2021/01/02 00:59:23;37293.00;0.12;65.20;0.00;0.00;0.62;;;;;11.70;1.00;;;;;;2276800;61;1768;-88
2021/01/02 01:02:15;51400.00;0.17;89.61;0.00;0.00;0.62;;;;;11.60;1.00;;;;;;2276836;61;1461;-89
2021/01/02 01:05:02;104132.00;0.35;180.70;0.00;0.00;0.62;;;;;11.40;1.00;;;;;;2276822;61;1091;-88
2021/01/02 01:07:33;21178.00;0.07;37.31;0.00;0.00;0.62;;;;;11.30;1.00;;;;;;2276736;61;1585;-89
2021/01/02 01:10:02;7899.00;0.03;14.31;0.00;0.00;0.62;;;;;11.40;1.00;;;;;;2276787;61;1977;-88
2021/01/02 01:12:34;0.00;0.00;0.62;0.00;0.00;0.62;;;;;11.50;1.00;;;;;;2276720;61;1300;-89
2021/01/02 01:15:02;0.00;0.00;0.62;0.00;0.00;0.62;;;;;11.50;1.00;;;;;;2276746;61;1170;-89
2021/01/02 01:17:40;0.00;0.00;0.62;0.00;0.00;0.62;;;;;11.40;1.00;;;;;;2276671;61;1529;-89
2021/01/02 01:20:13;64867.00;0.22;112.89;0.00;0.00;0.62;;;;;11.30;1.00;;;;;;2276734;61;1087;-90
2021/01/02 01:22:45;0.00;0.00;0.62;0.00;0.00;0.62;;;;;11.10;1.00;;;;;;2276700;61;1605;-90
2021/01/02 01:25:33;11591.00;0.04;20.71;0.00;0.00;0.62;;;;;10.70;1.00;;;;;;2276783;61;1070;-90
2021/01/02 01:28:09;146495.00;0.49;253.77;0.00;0.00;0.62;;;;;10.80;1.00;;;;;;2276739;61;1110;-89
2021/01/02 01:30:40;38977.00;0.13;68.12;0.00;0.00;0.62;;;;;10.90;1.00;;;;;;2276675;61;2001;-89
2021/01/02 01:33:09;41703.00;0.14;72.83;0.00;0.00;0.62;;;;;10.80;1.00;;;;;;2276675;61;1586;-89
2021/01/02 01:35:43;0.00;0.00;0.62;0.00;0.00;0.62;;;;;10.60;1.00;;;;;;2276663;61;1754;-88
2021/01/02 01:38:15;32787.00;0.11;57.41;0.00;0.00;0.62;;;;;10.70;1.00;;;;;;2276732;61;1108;-89
2021/01/02 01:40:44;181032.00;0.60;313.27;16561.00;0.06;29.31;;;;;10.10;1.00;;;;;;2276573;61;1638;-88
2021/01/02 01:43:26;0.00;0.00;0.62;0.00;0.00;0.62;;;;;10.10;1.00;;;;;;2276663;61;1425;-88
2021/01/02 01:46:15;119102.00;0.40;206.53;0.00;0.00;0.62;;;;;9.50;1.00;;;;;;2276616;61;1603;-90
2021/01/02 01:49:05;0.00;0.00;0.62;0.00;0.00;0.62;;;;;9.60;1.00;;;;;;2277046;61;1121;-89
2021/01/02 01:52:00;59069.00;0.20;102.87;0.00;0.00;0.62;;;;;9.80;1.00;;;;;;2277361;61;2010;-89
2021/01/02 01:54:49;315.00;0.00;1.17;0.00;0.00;0.62;;;;;9.20;1.00;;;;;;2277411;61;1103;-91
2021/01/02 01:57:23;185335.00;0.62;320.68;46723.00;0.16;81.52;;;;;8.80;1.00;;;;;;2277414;61;1616;-92
2021/01/02 02:00:10;29901.00;0.10;52.41;0.00;0.00;0.62;;;;;7.40;1.00;;;;;;2277390;61;1001;-90
2021/01/02 02:03:03;58329.00;0.19;101.59;0.00;0.00;0.62;;;;;6.60;1.00;;;;;;2277268;61;1744;-90
2021/01/02 02:05:50;24394.00;0.08;42.88;0.00;0.00;0.62;;;;;6.70;1.00;;;;;;2275012;61;1436;-88
2021/01/02 02:08:17;9739.00;0.03;17.50;0.00;0.00;0.62;;;;;7.30;1.00;;;;;;2277341;61;1761;-89
2021/01/02 02:10:47;55920.00;0.19;97.42;0.00;0.00;0.62;;;;;7.50;1.00;;;;;;2277273;61;1915;-89
2021/01/02 02:13:15;18748.00;0.06;33.10;0.00;0.00;0.62;;;;;8.30;1.00;;;;;;2277319;61;1338;-88
2021/01/02 02:15:50;31620.00;0.11;55.39;0.00;0.00;0.62;;;;;8.80;1.00;;;;;;2277341;61;1072;-90
2021/01/02 02:18:22;4574.00;0.02;8.55;0.00;0.00;0.62;;;;;9.00;1.00;;;;;;2277371;61;1052;-90
2021/01/02 02:20:52;260370.00;0.87;449.78;38988.00;0.13;68.14;;;;;9.40;1.00;;;;;;2277343;61;1140;-89
2021/01/02 02:23:23;0.00;0.00;0.62;0.00;0.00;0.62;;;;;9.40;1.00;;;;;;2277231;61;1726;-89
2021/01/02 02:26:03;29142.00;0.10;51.10;0.00;0.00;0.62;;;;;9.70;1.00;;;;;;2277331;61;937;-90
2021/01/02 02:29:03;92248.00;0.31;160.19;0.00;0.00;0.62;;;;;9.30;1.00;;;;;;2277304;61;1104;-88
2021/01/02 02:31:30;76847.00;0.26;133.59;0.00;0.00;0.62;;;;;8.10;1.00;;;;;;2277271;61;1977;-89
2021/01/02 02:33:58;145261.00;0.48;251.64;0.00;0.00;0.62;;;;;7.40;1.00;;;;;;2277313;61;1309;-89
2021/01/02 02:36:29;45716.00;0.15;79.78;0.00;0.00;0.62;;;;;6.90;1.00;;;;;;2277213;61;1705;-90
2021/01/02 02:38:59;99928.00;0.33;173.45;0.00;0.00;0.62;;;;;6.60;1.00;;;;;;2277175;61;1747;-89
2021/01/02 02:41:30;0.00;0.00;0.62;0.00;0.00;0.62;;;;;6.30;1.00;;;;;;2277260;61;1138;-89
2021/01/02 02:44:02;142270.00;0.47;246.48;49582.00;0.17;86.46;;;;;6.30;1.00;;;;;;2277252;61;1375;-89
2021/01/02 02:46:34;83665.00;0.28;145.37;0.00;0.00;0.62;;;;;6.10;1.00;;;;;;2277181;61;1636;-89
2021/01/02 02:49:06;18897.00;0.06;33.36;0.00;0.00;0.62;;;;;5.90;1.00;;;;;;2277266;61;1011;-91
2021/01/02 02:51:42;54804.00;0.18;95.49;0.00;0.00;0.62;;;;;5.90;1.00;;;;;;2277176;61;1919;-91
2021/01/02 02:54:09;5903.00;0.02;10.85;0.00;0.00;0.62;;;;;5.90;1.00;;;;;;2277227;61;1743;-91
2021/01/02 02:56:36;96539.00;0.32;167.60;0.00;0.00;0.62;;;;;5.80;1.00;;;;;;2277219;61;1567;-90
2021/01/02 02:59:04;205583.00;0.69;355.53;0.00;0.00;0.62;;;;;5.90;1.00;;;;;;2277148;61;1071;-90
2021/01/02 03:01:31;30312.00;0.10;53.12;0.00;0.00;0.62;;;;;5.50;1.00;;;;;;2277249;61;1052;-90
2021/01/02 03:03:58;153577.00;0.51;265.97;0.00;0.00;0.62;;;;;5.50;1.00;;;;;;2277131;61;1744;-90
2021/01/02 03:06:30;77023.00;0.26;133.89;0.00;0.00;0.62;;;;;5.80;1.00;;;;;;2277134;61;971;-90
2021/01/02 03:08:58;38740.00;0.13;67.71;0.00;0.00;0.62;;;;;6.50;1.00;;;;;;2277161;61;1727;-90
2021/01/02 03:11:25;29459.00;0.10;51.65;0.00;0.00;0.62;;;;;6.30;1.00;;;;;;2277200;61;2006;-89
2021/01/02 03:13:52;81428.00;0.27;141.50;0.00;0.00;0.62;;;;;5.10;1.00;;;;;;2277178;61;1462;-89
2021/01/02 03:16:19;29954.00;0.10;52.50;0.00;0.00;0.62;;;;;4.70;1.00;;;;;;2277143;61;1069;-89
2021/01/02 03:18:46;198623.00;0.66;343.55;55453.00;0.18;96.62;;;;;4.80;1.00;;;;;;2277159;61;1044;-90
2021/01/02 03:21:13;166047.00;0.55;287.46;0.00;0.00;0.62;;;;;5.30;1.00;;;;;;2277119;61;1636;-91
2021/01/02 03:23:48;234608.00;0.78;405.48;0.00;0.00;0.62;;;;;5.00;1.00;;;;;;2277084;61;1562;-89
2021/01/02 03:26:16;0.00;0.00;0.62;0.00;0.00;0.62;;;;;4.60;1.00;;;;;;2277114;61;1126;-89
2021/01/02 03:28:49;53365.00;0.18;93.01;0.00;0.00;0.62;;;;;4.60;1.00;;;;;;2277180;61;1074;-89
2021/01/02 03:31:16;9785.00;0.03;17.58;0.00;0.00;0.62;;;;;4.70;1.00;;;;;;2277098;61;2013;-90
2021/01/02 03:33:43;50578.00;0.17;88.19;0.00;0.00;0.62;;;;;4.90;1.00;;;;;;2277094;61;1312;-89
2021/01/02 03:36:09;144455.00;0.48;250.25;0.00;0.00;0.62;;;;;5.10;1.00;;;;;;2277068;61;1878;-90
2021/01/02 03:38:36;55342.00;0.18;96.42;0.00;0.00;0.62;;;;;5.40;1.00;;;;;;2277068;61;1759;-89
2021/01/02 03:41:03;64354.00;0.21;112.00;0.00;0.00;0.62;;;;;5.40;1.00;;;;;;2277065;61;1078;-89
2021/01/02 03:43:30;82443.00;0.27;143.26;0.00;0.00;0.62;;;;;5.90;1.00;;;;;;2277030;61;1625;-89
2021/01/02 03:45:57;10966.00;0.04;19.62;0.00;0.00;0.62;;;;;6.60;1.00;;;;;;2277058;61;1701;-91
2021/01/02 03:48:23;47602.00;0.16;83.04;0.00;0.00;0.62;;;;;7.40;1.00;;;;;;2277017;61;1795;-91
2021/01/02 03:50:50;0.00;0.00;0.62;0.00;0.00;0.62;;;;;7.90;1.00;;;;;;2277056;61;1989;-89
2021/01/02 03:53:17;29829.00;0.10;52.29;0.00;0.00;0.62;;;;;8.00;1.00;;;;;;2276958;61;1433;-88
2021/01/02 03:55:43;0.00;0.00;0.62;0.00;0.00;0.62;;;;;8.30;1.00;;;;;;2277090;61;1079;-90
2021/01/02 03:58:10;95654.00;0.32;166.07;0.00;0.00;0.62;;;;;8.30;1.00;;;;;;2277006;61;1130;-90
2021/01/02 04:00:39;0.00;0.00;0.62;0.00;0.00;0.62;;;;;8.60;1.00;;;;;;2276991;61;1739;-89
2021/01/02 04:03:06;27107.00;0.09;47.58;0.00;0.00;0.62;;;;;8.70;1.00;;;;;;2276984;61;1315;-88
2021/01/02 04:05:34;24755.00;0.08;43.50;0.00;0.00;0.62;;;;;7.80;1.00;;;;;;2277015;61;1090;-88
2021/01/02 04:08:02;48347.00;0.16;84.33;0.00;0.00;0.62;;;;;7.20;1.00;;;;;;2276992;61;1224;-88
2021/01/02 04:10:28;170476.00;0.57;295.09;0.00;0.00;0.62;;;;;6.70;1.00;;;;;;2276784;61;2012;-90
2021/01/02 04:12:55;172013.00;0.57;297.73;0.00;0.00;0.62;;;;;6.50;1.00;;;;;;2276893;61;1396;-91
2021/01/02 04:15:21;63747.00;0.21;110.95;0.00;0.00;0.62;;;;;6.80;1.00;;;;;;2276905;61;1723;-89
2021/01/02 04:17:49;146103.00;0.49;253.09;0.00;0.00;0.62;;;;;6.80;1.00;;;;;;2276903;61;1566;-90
2021/01/02 04:20:15;126967.00;0.42;220.10;25716.00;0.09;45.17;;;;;6.90;1.00;;;;;;2276974;61;1087;-89
2021/01/02 04:22:43;101200.00;0.34;175.64;0.00;0.00;0.62;;;;;6.60;1.00;;;;;;2276872;61;1773;-90
2021/01/02 04:25:10;43986.00;0.15;76.78;0.00;0.00;0.62;;;;;6.80;1.00;;;;;;2276979;61;1101;-90
2021/01/02 04:27:37;2878.00;0.01;5.61;0.00;0.00;0.62;;;;;6.60;1.00;;;;;;2276954;61;1045;-89
2021/01/02 04:30:05;10853.00;0.04;19.43;0.00;0.00;0.62;;;;;6.70;1.00;;;;;;2276875;61;2000;-91
2021/01/02 04:32:31;170939.00;0.57;295.88;0.00;0.00;0.62;;;;;7.40;1.00;;;;;;2276848;61;1604;-90
2021/01/02 04:34:59;8339.00;0.03;15.07;0.00;0.00;0.62;;;;;8.00;1.00;;;;;;2276902;61;1165;-90
2021/01/02 04:37:28;117686.00;0.39;204.09;0.00;0.00;0.62;;;;;8.30;1.00;;;;;;2276894;61;1094;-90
2021/01/02 04:39:56;0.00;0.00;0.62;0.00;0.00;0.62;;;;;7.60;1.00;;;;;;2276850;61;1000;-88
2021/01/02 04:42:24;90788.00;0.30;157.67;0.00;0.00;0.62;;;;;7.50;1.00;;;;;;2276835;61;1730;-91
2021/01/02 04:44:52;198235.00;0.66;342.89;0.00;0.00;0.62;;;;;7.30;1.00;;;;;;2276877;61;1742;-90
2021/01/02 04:47:19;7835.00;0.03;14.20;0.00;0.00;0.62;;;;;7.20;1.00;;;;;;2276873;61;980;-90
2021/01/02 04:49:46;124904.00;0.42;216.54;0.00;0.00;0.62;;;;;7.20;1.00;;;;;;2276825;61;1736;-91
2021/01/02 04:52:17;73729.00;0.25;128.20;0.00;0.00;0.62;;;;;6.60;1.00;;;;;;2276748;61;1927;-90
2021/01/02 04:54:49;62586.00;0.21;108.95;0.00;0.00;0.62;;;;;6.30;1.00;;;;;;2276837;61;1731;-91
2021/01/02 04:57:16;113835.00;0.38;197.45;0.00;0.00;0.62;;;;;6.30;1.00;;;;;;2276754;61;1648;-88
2021/01/02 04:59:49;63080.00;0.21;109.80;0.00;0.00;0.62;;;;;5.60;1.00;;;;;;2276852;61;1024;-89
2021/01/02 05:02:19;60292.00;0.20;104.98;0.00;0.00;0.62;;;;;5.10;1.00;;;;;;2276802;61;1558;-89
2021/01/02 05:04:47;47247.00;0.16;82.42;0.00;0.00;0.62;;;;;4.90;1.00;;;;;;2276797;61;1743;-89
2021/01/02 05:07:24;37474.00;0.12;65.52;0.00;0.00;0.62;;;;;5.10;1.00;;;;;;2276865;61;970;-89
2021/01/02 05:09:52;9224.00;0.03;16.60;0.00;0.00;0.62;;;;;4.80;1.00;;;;;;2276561;61;1116;-90
2021/01/02 05:12:30;63112.00;0.21;109.86;0.00;0.00;0.62;;;;;4.60;1.00;;;;;;2276704;61;1934;-88
2021/01/02 05:15:03;133018.00;0.44;230.53;0.00;0.00;0.62;;;;;4.30;1.00;;;;;;2276730;61;1613;-90
2021/01/02 05:17:31;19167.00;0.06;33.83;0.00;0.00;0.62;;;;;4.10;1.00;;;;;;2276812;61;1110;-88
2021/01/02 05:20:02;330903.00;1.10;571.04;96678.00;0.32;167.84;;;;;3.80;1.00;;;;;;2276720;61;1758;-90
2021/01/02 05:22:29;275934.00;0.92;476.55;85970.00;0.29;149.35;;;;;3.80;1.00;;;;;;2276677;61;1295;-89
2021/01/02 05:25:13;237848.00;0.79;411.05;85822.00;0.29;149.09;;;;;4.00;1.00;;;;;;2276782;61;1083;-88
2021/01/02 05:27:41;668146.00;2.23;1152.04;91880.00;0.31;159.55;;;;;4.10;1.00;;;;;;2276705;61;1756;-88
2021/01/02 05:30:19;531877.00;1.77;916.73;93567.00;0.31;162.47;;;;;3.80;1.00;;;;;;2276713;61;1988;-89
2021/01/02 05:33:08;695129.00;2.32;1198.79;95934.00;0.32;166.55;;;;;4.00;1.00;;;;;;2276618;61;1619;-88
2021/01/02 05:35:37;63094.00;0.21;109.83;0.00;0.00;0.62;;;;;4.10;1.00;;;;;;2276711;61;1739;-89
2021/01/02 05:38:13;218517.00;0.73;377.79;0.00;0.00;0.62;;;;;4.40;1.00;;;;;;2276673;61;1747;-89
2021/01/02 05:40:42;98835.00;0.33;171.56;0.00;0.00;0.62;;;;;4.60;1.00;;;;;;2276531;61;1942;-88
2021/01/02 05:43:08;69010.00;0.23;120.05;0.00;0.00;0.62;;;;;4.50;1.00;;;;;;2276650;61;1340;-90
2021/01/02 05:45:36;113092.00;0.38;196.17;0.00;0.00;0.62;;;;;4.50;1.00;;;;;;2276657;61;1739;-89
2021/01/02 05:48:22;242711.00;0.81;419.41;6860.00;0.02;12.51;;;;;4.20;1.00;;;;;;2276708;61;1042;-89
2021/01/02 05:50:54;49771.00;0.17;86.79;0.00;0.00;0.62;;;;;4.20;1.00;;;;;;2276642;61;1989;-87
2021/01/02 05:53:28;17982.00;0.06;31.78;0.00;0.00;0.62;;;;;4.20;1.00;;;;;;2276661;61;1313;-91
2021/01/02 05:56:06;53965.00;0.18;94.04;0.00;0.00;0.62;;;;;4.20;1.00;;;;;;2276700;61;1080;-91
2021/01/02 05:58:41;85334.00;0.28;148.25;0.00;0.00;0.62;;;;;4.10;1.00;;;;;;2276597;61;1763;-89
2021/01/02 06:01:13;19620.00;0.07;34.61;0.00;0.00;0.62;;;;;4.20;1.00;;;;;;2276616;61;1714;-90
2021/01/02 06:03:41;219870.00;0.73;380.12;0.00;0.00;0.62;;;;;4.40;1.00;;;;;;2276642;61;1444;-90
2021/01/02 06:06:09;45883.00;0.15;80.07;0.00;0.00;0.62;;;;;4.20;1.00;;;;;;2276691;61;993;-90
2021/01/02 06:08:39;47313.00;0.16;82.54;0.00;0.00;0.62;;;;;4.00;1.00;;;;;;2276714;61;962;-90
2021/01/02 06:11:08;78978.00;0.26;137.27;0.00;0.00;0.62;;;;;3.80;1.00;;;;;;2276591;61;1927;-89
2021/01/02 06:13:36;56652.00;0.19;98.69;0.00;0.00;0.62;;;;;4.00;1.00;;;;;;2276554;61;1639;-90
2021/01/02 06:16:05;166901.00;0.56;288.93;0.00;0.00;0.62;;;;;4.30;1.00;;;;;;2276534;61;1688;-89
2021/01/02 06:18:36;82447.00;0.27;143.26;0.00;0.00;0.62;;;;;4.40;1.00;;;;;;2276648;61;1062;-89
2021/01/02 06:21:08;97996.00;0.33;170.11;0.00;0.00;0.62;;;;;4.30;1.00;;;;;;2276617;61;1059;-89
2021/01/02 06:23:37;61016.00;0.20;106.23;0.00;0.00;0.62;;;;;3.90;1.00;;;;;;2276557;61;1364;-90
2021/01/02 06:26:05;70489.00;0.23;122.61;0.00;0.00;0.62;;;;;3.60;1.00;;;;;;2276540;61;1733;-87
2021/01/02 06:28:33;73408.00;0.24;127.65;0.00;0.00;0.62;;;;;3.70;1.00;;;;;;2276546;61;1521;-89
2021/01/02 06:31:01;148432.00;0.49;257.11;0.00;0.00;0.62;;;;;4.10;1.00;;;;;;2276488;61;1931;-89
2021/01/02 06:33:29;264485.00;0.88;456.86;0.00;0.00;0.62;;;;;3.90;1.00;;;;;;2276462;61;1734;-89
2021/01/02 06:35:56;4205.00;0.01;7.91;0.00;0.00;0.62;;;;;3.70;1.00;;;;;;2277186;61;1749;-89
2021/01/02 06:38:24;35241.00;0.12;61.65;0.00;0.00;0.62;;;;;3.30;1.00;;;;;;2277265;61;1162;-88
2021/01/02 06:40:53;20305.00;0.07;35.80;0.00;0.00;0.62;;;;;3.30;1.00;;;;;;2277178;61;1035;-88
2021/01/02 06:43:20;104574.00;0.35;181.47;0.00;0.00;0.62;;;;;4.10;1.90;;;;;;2277195;61;1715;-88
2021/01/02 06:45:49;72760.00;0.24;126.53;0.00;0.00;0.62;;;;;5.10;1.00;;;;;;2277218;61;1059;-90
2021/01/02 06:48:46;110084.00;0.37;190.97;0.00;0.00;0.62;;;;;5.70;1.00;;;;;;2277276;61;1132;-88
2021/01/02 06:51:32;97779.00;0.33;169.74;0.00;0.00;0.62;;;;;6.20;1.00;;;;;;2276942;61;1916;-90
2021/01/02 06:54:01;73717.00;0.25;128.18;0.00;0.00;0.62;;;;;6.50;1.00;;;;;;2277155;61;1606;-89
2021/01/02 06:56:36;116393.00;0.39;201.86;0.00;0.00;0.62;;;;;6.60;1.00;;;;;;2277179;61;1576;-90
2021/01/02 06:59:04;70120.00;0.23;121.97;0.00;0.00;0.62;;;;;6.60;1.00;;;;;;2277145;61;1607;-88
2021/01/02 07:01:44;110003.00;0.37;190.84;0.00;0.00;0.62;;;;;6.50;1.00;;;;;;2277210;61;1018;-91
2021/01/02 07:04:11;20833.00;0.07;36.71;0.00;0.00;0.62;;;;;6.60;1.00;;;;;;2277127;61;1072;-89
2021/01/02 07:06:58;98990.00;0.33;171.83;0.00;0.00;0.62;;;;;6.70;1.00;;;;;;2287394;60;1200;-90
2021/01/02 07:09:27;184934.00;0.62;319.99;0.00;0.00;0.62;;;;;5.80;1.00;;;;;;2280456;61;1072;-89
2021/01/02 07:12:16;14712.00;0.05;26.11;0.00;0.00;0.62;;;;;5.20;1.00;;;;;;2284118;60;1456;-91
2021/01/02 07:14:44;10276.00;0.03;18.43;0.00;0.00;0.62;;;;;4.50;1.00;;;;;;2271818;61;977;-89
2021/01/02 07:17:12;50719.00;0.17;88.43;0.00;0.00;0.62;;;;;4.20;1.00;;;;;;2271917;61;1090;-89
2021/01/02 07:19:53;102599.00;0.34;178.06;0.00;0.00;0.62;;;;;3.90;1.00;;;;;;2271890;61;1062;-90
2021/01/02 07:22:28;63813.00;0.21;111.07;0.00;0.00;0.62;;;;;4.20;1.00;;;;;;2267668;61;1344;-90
2021/01/02 07:25:01;4919.00;0.02;9.15;0.00;0.00;0.62;;;;;4.20;1.00;;;;;;2257392;61;1937;-84
2021/01/02 07:27:30;209926.00;0.70;363.01;44422.00;0.15;77.54;;;;;4.30;1.00;;;;;;2257742;61;1019;-90
2021/01/02 07:30:02;34088.00;0.11;59.66;0.00;0.00;0.62;;;;;4.90;1.20;;;;;;2257278;61;1038;-90
2021/01/02 07:32:30;84367.00;0.28;146.58;0.00;0.00;0.62;;;;;5.80;1.00;;;;;;2260213;61;1440;-89
2021/01/02 07:34:59;38238.00;0.13;66.84;0.00;0.00;0.62;;;;;5.60;1.00;;;;;;2259364;61;1095;-88
2021/01/02 07:37:29;39908.00;0.13;69.73;0.00;0.00;0.62;;;;;5.50;1.00;;;;;;2259557;61;1097;-88
2021/01/02 07:39:58;0.00;0.00;0.62;0.00;0.00;0.62;;;;;5.00;1.00;;;;;;2256590;61;1098;-88
2021/01/02 07:42:26;0.00;0.00;0.62;0.00;0.00;0.62;;;;;4.60;1.00;;;;;;2255919;61;1326;-89
2021/01/02 07:45:01;59621.00;0.20;103.82;0.00;0.00;0.62;;;;;4.50;1.00;;;;;;2256083;61;1924;-88
2021/01/02 07:47:29;137502.00;0.46;238.26;0.00;0.00;0.62;;;;;4.30;1.00;;;;;;2256508;61;1212;-89
2021/01/02 07:50:05;205613.00;0.69;355.58;0.00;0.00;0.62;;;;;4.50;1.00;;;;;;2259519;61;1256;-89
2021/01/02 07:52:33;63708.00;0.21;110.89;0.00;0.00;0.62;;;;;4.50;1.00;;;;;;2258317;61;1358;-87
2021/01/02 07:55:07;46361.00;0.15;80.89;0.00;0.00;0.62;;;;;4.30;1.00;;;;;;2267360;61;1153;-89
2021/01/02 07:57:33;95989.00;0.32;166.65;0.00;0.00;0.62;;;;;4.10;1.00;;;;;;2269866;61;976;-91
2021/01/02 07:59:59;47292.00;0.16;82.50;0.00;0.00;0.62;;;;;4.20;1.00;;;;;;2275766;61;1039;-88
2021/01/02 08:02:28;15100.00;0.05;26.78;0.00;0.00;0.62;;;;;4.30;1.00;;;;;;2272399;61;1463;-88
2021/01/02 08:04:55;10283.00;0.03;18.44;0.00;0.00;0.62;;;;;4.30;1.00;;;;;;2273713;61;2021;-88
2021/01/02 08:07:22;0.00;0.00;0.62;0.00;0.00;0.62;;;;;4.20;1.00;;;;;;2280237;61;1148;-89
2021/01/02 08:09:50;18648.00;0.06;32.93;0.00;0.00;0.62;;;;;4.10;1.00;;;;;;2276432;61;1184;-87
2021/01/02 08:12:19;14320.00;0.05;25.43;0.00;0.00;0.62;;;;;4.10;1.00;;;;;;2276344;61;1445;-88
2021/01/02 08:14:47;0.00;0.00;0.62;0.00;0.00;0.62;;;;;3.80;1.00;;;;;;2280209;61;1219;-89
2021/01/02 08:17:16;33074.00;0.11;57.90;0.00;0.00;0.62;;;;;3.80;1.00;;;;;;2273997;61;1054;-90
2021/01/02 08:19:56;220389.00;0.73;381.01;79211.00;0.26;137.67;;;;;4.40;1.00;;;;;;2263051;61;1129;-89
2021/01/02 08:22:30;134493.00;0.45;233.08;0.00;0.00;0.62;;;;;5.10;1.00;;;;;;2262984;61;1486;-91
2021/01/02 08:24:59;50832.00;0.17;88.63;0.00;0.00;0.62;;;;;5.00;1.00;;;;;;2263056;61;2001;-89
2021/01/02 08:27:26;101441.00;0.34;176.06;0.00;0.00;0.62;;;;;4.90;1.00;;;;;;2272881;61;998;-88
2021/01/02 08:29:54;87444.00;0.29;151.89;0.00;0.00;0.62;;;;;5.10;1.00;;;;;;2260892;61;1014;-88
2021/01/02 08:32:25;65348.00;0.22;113.72;0.00;0.00;0.62;;;;;5.20;1.00;;;;;;2260926;61;1407;-92
2021/01/02 08:34:52;8548.00;0.03;15.43;0.00;0.00;0.62;;;;;5.00;1.00;;;;;;2266246;61;1199;-90
2021/01/02 08:37:20;75826.00;0.25;131.83;0.00;0.00;0.62;;;;;4.60;1.00;;;;;;2268885;61;1040;-89
2021/01/02 08:39:47;818.00;0.00;2.04;0.00;0.00;0.62;;;;;4.40;1.00;;;;;;2259006;61;995;-88
2021/01/02 08:42:14;71758.00;0.24;124.80;0.00;0.00;0.62;;;;;4.00;1.00;;;;;;2258905;61;1364;-88
2021/01/02 08:44:45;0.00;0.00;0.62;0.00;0.00;0.62;;;;;3.70;1.00;;;;;;2268966;61;1985;-90
2021/01/02 08:47:23;48665.00;0.16;84.88;0.00;0.00;0.62;;;;;3.70;1.00;;;;;;2271370;61;994;-88
2021/01/02 08:49:49;443.00;0.00;1.39;0.00;0.00;0.62;;;;;3.80;1.00;;;;;;2281061;61;1084;-90
2021/01/02 08:52:24;72978.00;0.24;126.91;0.00;0.00;0.62;;;;;3.90;1.00;;;;;;2281109;61;1316;-89
2021/01/02 08:54:53;0.00;0.00;0.62;0.00;0.00;0.62;;;;;3.60;1.00;;;;;;2268836;61;981;-90
2021/01/02 08:57:25;29628.00;0.10;51.94;0.00;0.00;0.62;;;;;3.40;1.00;;;;;;2260845;61;1161;-91
2021/01/02 08:59:52;98084.00;0.33;170.26;0.00;0.00;0.62;;;;;3.40;1.00;;;;;;2260882;61;1078;-90
2021/01/02 09:02:19;177582.00;0.59;307.33;0.00;0.00;0.62;;;;;3.40;1.00;;;;;;2256590;61;1584;-91
2021/01/02 09:05:04;375660.00;1.25;647.97;0.00;0.00;0.62;;;;;4.20;1.00;;;;;;2256749;61;1915;-91
2021/01/02 09:07:33;299536.00;1.00;517.12;26863.00;0.09;47.15;;;;;4.50;1.00;;;;;;2248816;61;1051;-90
2021/01/02 09:10:28;199012.00;0.66;344.22;0.00;0.00;0.62;;;;;4.20;1.00;;;;;;2248748;61;955;-87
2021/01/02 09:13:24;66358.00;0.22;115.47;0.00;0.00;0.62;;;;;4.80;1.00;;;;;;2248434;61;1417;-87
2021/01/02 09:15:53;167191.00;0.56;289.43;0.00;0.00;0.62;;;;;4.70;1.00;;;;;;2253089;61;1146;-87
2021/01/02 09:18:39;458275.00;1.53;790.02;0.00;0.00;0.62;;;;;4.90;1.00;;;;;;2260289;61;1617;-87
2021/01/02 09:21:26;0.00;0.00;0.62;0.00;0.00;0.62;;;;;4.70;1.00;;;;;;2259875;61;991;-87
2021/01/02 09:23:54;57922.00;0.19;100.88;0.00;0.00;0.62;;;;;4.90;1.00;;;;;;2260663;61;1424;-87
2021/01/02 09:26:25;1214322.00;4.05;2116.14;15139.00;0.05;26.85;;;;;4.80;1.00;;;;;;2270942;61;1919;-87
2021/01/02 09:28:56;4796.00;0.02;8.93;0.00;0.00;0.62;;;;;4.90;1.00;;;;;;2272370;61;1654;-87
2021/01/02 09:31:24;250708.00;0.84;433.17;0.00;0.00;0.62;;;;;5.30;1.00;;;;;;2272778;61;1613;-87
2021/01/02 09:33:52;77485.00;0.26;134.69;0.00;0.00;0.62;;;;;5.70;1.00;;;;;;2272768;61;1332;-88
2021/01/02 09:36:21;21217.00;0.07;37.38;0.00;0.00;0.62;;;;;6.10;1.00;;;;;;2272718;61;1005;-88
2021/01/02 09:38:49;0.00;0.00;0.62;0.00;0.00;0.62;;;;;6.40;1.00;;;;;;2274406;61;1112;-88
2021/01/02 09:41:18;41408.00;0.14;72.32;0.00;0.00;0.62;;;;;6.70;1.00;;;;;;2277186;61;1689;-88
2021/01/02 09:43:45;171341.00;0.57;296.58;0.00;0.00;0.62;;;;;6.90;1.00;;;;;;2277247;61;1418;-89
2021/01/02 09:46:16;79915.00;0.27;138.89;0.00;0.00;0.62;;;;;6.60;1.00;;;;;;2277113;61;2017;-88
2021/01/02 09:48:44;17423.00;0.06;30.81;0.00;0.00;0.62;;;;;6.60;1.00;;;;;;2277229;61;1109;-87
2021/01/02 09:51:11;107929.00;0.36;187.26;0.00;0.00;0.62;;;;;6.80;1.00;;;;;;2277342;61;1538;-88
2021/01/02 09:53:37;0.00;0.00;0.62;0.00;0.00;0.62;;;;;6.70;1.00;;;;;;2277185;61;1284;-88
2021/01/02 09:56:04;24093.00;0.08;42.36;0.00;0.00;0.62;;;;;6.30;1.00;;;;;;2277100;61;1643;-89
2021/01/02 09:58:32;103059.00;0.34;178.85;0.00;0.00;0.62;;;;;5.80;1.00;;;;;;2277170;61;962;-88
2021/01/02 10:00:59;113260.00;0.38;196.45;0.00;0.00;0.62;;;;;5.00;1.00;;;;;;2277131;61;1117;-88
2021/01/02 10:03:25;154007.00;0.51;266.71;7473.00;0.02;13.57;;;;;4.90;1.00;;;;;;2277135;61;1419;-87
2021/01/02 10:05:52;33075.00;0.11;57.91;0.00;0.00;0.62;;;;;5.00;1.00;;;;;;2277040;61;1915;-88
2021/01/02 10:08:19;20399.00;0.07;35.96;0.00;0.00;0.62;;;;;5.40;1.00;;;;;;2277128;61;1110;-88
2021/01/02 10:10:45;42700.00;0.14;74.56;0.00;0.00;0.62;;;;;5.30;1.00;;;;;;2277142;61;996;-87
2021/01/02 10:13:12;4797.00;0.02;8.93;0.00;0.00;0.62;;;;;5.10;1.00;;;;;;2277094;61;1480;-87
2021/01/02 10:15:39;63831.00;0.21;111.10;0.00;0.00;0.62;;;;;5.20;1.00;;;;;;2277093;61;1173;-87
2021/01/02 10:18:06;56129.00;0.19;97.78;0.00;0.00;0.62;;;;;5.10;1.00;;;;;;2277090;61;1131;-87
2021/01/02 10:20:33;77696.00;0.26;135.06;0.00;0.00;0.62;;;;;5.30;1.00;;;;;;2277077;61;1660;-87
2021/01/02 10:23:00;52069.00;0.17;90.76;0.00;0.00;0.62;;;;;5.60;1.00;;;;;;2277053;61;1408;-87
2021/01/02 10:25:27;264.00;0.00;1.08;0.00;0.00;0.62;;;;;5.80;1.00;;;;;;2277050;61;1915;-87
2021/01/02 10:27:53;144837.00;0.48;250.91;0.00;0.00;0.62;;;;;5.70;1.00;;;;;;2277011;61;1085;-87
2021/01/02 10:30:20;83996.00;0.28;145.94;0.00;0.00;0.62;;;;;5.30;1.00;;;;;;2277080;61;1125;-87
2021/01/02 10:32:48;87230.00;0.29;151.52;0.00;0.00;0.62;;;;;5.10;1.00;;;;;;2276946;61;1356;-88
2021/01/02 10:35:17;93747.00;0.31;162.78;0.00;0.00;0.62;;;;;4.50;1.00;;;;;;2277055;61;1155;-87
2021/01/02 10:37:46;39816.00;0.13;69.57;0.00;0.00;0.62;;;;;4.50;1.00;;;;;;2276990;61;1077;-88